createdAt,value
2023-03-03T00:01:05.165Z,18.90
2023-03-03T00:03:51.598Z,19.50
2023-03-03T00:06:38.561Z,17.33
2023-03-03T00:09:26.137Z,18.48
2023-03-03T00:12:23.457Z,16.73
2023-03-03T00:15:15.351Z,17.10
2023-03-03T00:18:03.404Z,17.20
2023-03-03T00:20:52.960Z,16.27
2023-03-03T00:23:42.556Z,17.23
2023-03-03T00:26:34.709Z,16.17
2023-03-03T00:29:38.308Z,14.50
2023-03-03T00:32:26.724Z,15.52
2023-03-03T00:35:24.802Z,15.73
2023-03-03T00:38:14.905Z,16.67
2023-03-03T00:41:02.573Z,14.93
2023-03-03T00:43:48.353Z,15.50
2023-03-03T00:46:37.024Z,15.90
2023-03-03T00:49:26.809Z,12.45
2023-03-03T00:52:16.134Z,13.38
2023-03-03T00:55:01.588Z,14.38
2023-03-03T00:57:48.622Z,13.02
2023-03-03T01:00:38.535Z,13.68
2023-03-03T01:03:27.088Z,11.48
2023-03-03T01:06:14.198Z,14.02
2023-03-03T01:09:00.007Z,12.43
2023-03-03T01:11:45.340Z,12.45
2023-03-03T01:14:32.835Z,13.23
2023-03-03T01:17:18.697Z,14.05
2023-03-03T01:20:05.504Z,13.25
2023-03-03T01:22:51.269Z,13.68
2023-03-03T01:25:37.615Z,13.45
2023-03-03T01:28:24.467Z,11.80
2023-03-03T01:31:12.897Z,12.35
2023-03-03T01:33:59.192Z,11.63
2023-03-03T01:36:45.359Z,12.68
2023-03-03T01:39:31.551Z,12.50
2023-03-03T01:42:18.260Z,12.98
2023-03-03T01:45:19.161Z,11.35
2023-03-03T01:48:10.435Z,11.40
2023-03-03T01:51:00.452Z,11.65
2023-03-03T01:53:50.236Z,12.20
2023-03-03T01:56:35.756Z,12.68
2023-03-03T01:59:25.871Z,11.45
2023-03-03T02:02:11.962Z,12.90
2023-03-03T02:04:59.066Z,13.20
2023-03-03T02:07:45.132Z,9.57
2023-03-03T02:10:32.012Z,14.32
2023-03-03T02:13:19.265Z,12.68
2023-03-03T02:16:05.923Z,13.30
2023-03-03T02:18:51.510Z,11.93
2023-03-03T02:21:42.391Z,13.63
2023-03-03T02:24:33.496Z,11.80
2023-03-03T02:27:20.629Z,13.82
2023-03-03T02:30:14.096Z,14.13
2023-03-03T02:33:00.132Z,13.88
2023-03-03T02:35:46.059Z,12.30
2023-03-03T02:38:38.975Z,13.30
2023-03-03T02:41:33.018Z,13.35
2023-03-03T02:44:23.302Z,13.30
2023-03-03T02:47:09.397Z,14.32
2023-03-03T02:49:54.975Z,13.85
2023-03-03T02:52:40.818Z,14.40
2023-03-03T02:55:27.674Z,12.80
2023-03-03T02:58:13.559Z,12.52
2023-03-03T03:01:01.166Z,13.63
2023-03-03T03:03:47.338Z,12.55
2023-03-03T03:06:36.905Z,12.82
2023-03-03T03:09:25.067Z,12.95
2023-03-03T03:12:12.669Z,12.93
2023-03-03T03:14:58.717Z,13.27
2023-03-03T03:17:45.719Z,13.20
2023-03-03T03:20:31.860Z,13.80
2023-03-03T03:23:17.930Z,13.38
2023-03-03T03:26:04.425Z,12.30
2023-03-03T03:28:51.530Z,13.25
2023-03-03T03:31:37.878Z,13.00
2023-03-03T03:34:25.155Z,12.82
2023-03-03T03:37:12.723Z,12.93
2023-03-03T03:39:58.491Z,11.93
2023-03-03T03:42:46.095Z,13.38
2023-03-03T03:45:32.426Z,14.52
2023-03-03T03:48:20.033Z,13.10
2023-03-03T03:51:10.001Z,13.57
2023-03-03T03:53:55.669Z,12.80
2023-03-03T03:56:41.817Z,12.63
2023-03-03T03:59:28.159Z,11.65
2023-03-03T04:02:14.157Z,13.02
2023-03-03T04:04:59.766Z,12.35
2023-03-03T04:07:47.056Z,12.38
2023-03-03T04:10:34.962Z,12.30
2023-03-03T04:13:22.078Z,12.98
2023-03-03T04:16:08.932Z,13.65
2023-03-03T04:18:54.804Z,13.45
2023-03-03T04:21:41.244Z,14.00
2023-03-03T04:24:28.399Z,12.82
2023-03-03T04:27:15.545Z,13.70
2023-03-03T04:30:02.017Z,14.48
2023-03-03T04:32:47.943Z,11.93
2023-03-03T04:35:35.362Z,11.27
2023-03-03T04:38:22.002Z,11.93
2023-03-03T04:41:09.919Z,11.40
2023-03-03T04:43:58.111Z,12.05
2023-03-03T04:46:43.972Z,7.03
2023-03-03T04:49:30.425Z,9.73
2023-03-03T04:52:16.840Z,11.02
2023-03-03T04:55:02.828Z,11.40
2023-03-03T04:57:50.840Z,10.90
2023-03-03T05:00:37.827Z,8.05
2023-03-03T05:03:24.326Z,10.55
2023-03-03T05:06:09.917Z,10.40
2023-03-03T05:08:55.613Z,11.73
2023-03-03T05:11:41.434Z,10.55
2023-03-03T05:14:28.485Z,13.13
2023-03-03T05:17:14.415Z,12.48
2023-03-03T05:20:00.191Z,13.93
2023-03-03T05:22:45.773Z,14.18
2023-03-03T05:25:31.520Z,11.25
2023-03-03T05:28:18.399Z,12.63
2023-03-03T05:31:05.804Z,10.75
2023-03-03T05:33:51.802Z,10.80
2023-03-03T05:36:37.721Z,11.80
2023-03-03T05:39:23.492Z,11.07
2023-03-03T05:42:09.864Z,14.00
2023-03-03T05:44:55.766Z,13.05
2023-03-03T05:47:43.321Z,13.68
2023-03-03T05:50:28.832Z,12.30
2023-03-03T05:53:14.327Z,11.95
2023-03-03T05:55:59.925Z,11.82
2023-03-03T05:58:45.674Z,9.65
2023-03-03T06:01:32.842Z,8.80
2023-03-03T06:04:19.640Z,10.07
2023-03-03T06:07:05.246Z,10.88
2023-03-03T06:09:51.249Z,9.88
2023-03-03T06:12:38.960Z,8.98
2023-03-03T06:15:24.741Z,9.00
2023-03-03T06:18:10.565Z,8.73
2023-03-03T06:20:57.574Z,9.13
2023-03-03T06:23:43.349Z,9.02
2023-03-03T06:26:29.716Z,9.52
2023-03-03T06:29:15.946Z,9.13
2023-03-03T06:32:02.135Z,8.23
2023-03-03T06:34:48.680Z,8.98
2023-03-03T06:37:36.072Z,8.40
2023-03-03T06:40:22.196Z,8.35
2023-03-03T06:43:08.321Z,7.65
2023-03-03T06:45:54.011Z,8.35
2023-03-03T06:48:40.773Z,8.45
2023-03-03T06:51:31.293Z,8.75
2023-03-03T06:54:20.757Z,8.15
2023-03-03T06:57:17.406Z,8.80
2023-03-03T07:00:18.283Z,8.70
2023-03-03T07:03:12.274Z,7.30
2023-03-03T07:05:57.947Z,8.65
2023-03-03T07:08:43.481Z,8.65
2023-03-03T07:11:31.466Z,8.40
2023-03-03T07:14:19.769Z,8.32
2023-03-03T07:17:05.456Z,7.30
2023-03-03T07:19:51.185Z,8.07
2023-03-03T07:22:37.394Z,7.63
2023-03-03T07:25:30.823Z,7.60
2023-03-03T07:28:23.825Z,8.13
2023-03-03T07:31:30.312Z,7.40
2023-03-03T07:34:21.770Z,8.00
2023-03-03T07:37:16.691Z,7.15
2023-03-03T07:40:25.371Z,6.32
2023-03-03T07:43:28.529Z,6.70
2023-03-03T07:46:23.647Z,7.00
2023-03-03T07:49:22.397Z,7.13
2023-03-03T07:52:23.530Z,7.28
2023-03-03T07:55:27.025Z,7.82
2023-03-03T07:58:36.032Z,8.10
2023-03-03T08:01:39.907Z,8.18
2023-03-03T08:04:29.956Z,9.23
2023-03-03T08:07:21.778Z,8.05
2023-03-03T08:10:32.113Z,10.73
2023-03-03T08:13:19.926Z,9.25
2023-03-03T08:16:34.810Z,9.55
2023-03-03T08:19:20.553Z,9.25
2023-03-03T08:22:14.910Z,9.07
2023-03-03T08:25:00.259Z,8.35
2023-03-03T08:27:46.160Z,9.13
2023-03-03T08:30:32.111Z,6.75
2023-03-03T08:33:19.560Z,6.93
2023-03-03T08:36:06.160Z,6.40
2023-03-03T08:38:51.934Z,7.07
2023-03-03T08:41:39.222Z,5.60
2023-03-03T08:44:25.109Z,6.43
2023-03-03T08:47:10.545Z,5.82
2023-03-03T08:49:57.984Z,4.97
2023-03-03T08:52:43.743Z,5.90
2023-03-03T08:55:29.491Z,6.05
2023-03-03T08:58:16.325Z,6.65
2023-03-03T09:01:02.138Z,7.68
2023-03-03T09:03:47.823Z,8.43
2023-03-03T09:06:34.826Z,7.13
2023-03-03T09:09:20.480Z,6.53
2023-03-03T09:12:15.965Z,6.82
2023-03-03T09:15:14.847Z,6.30
2023-03-03T09:18:10.451Z,7.20
2023-03-03T09:20:59.182Z,6.15
2023-03-03T09:23:53.233Z,6.15
2023-03-03T09:26:46.617Z,6.15
2023-03-03T09:29:37.712Z,6.00
2023-03-03T09:32:32.260Z,4.80
2023-03-03T09:35:37.071Z,4.50
2023-03-03T09:38:30.054Z,4.95
2023-03-03T09:41:55.288Z,5.82
2023-03-03T09:45:13.119Z,4.90
2023-03-03T09:48:30.819Z,5.25
2023-03-03T09:51:41.686Z,4.95
2023-03-03T09:54:39.548Z,7.82
2023-03-03T09:57:38.198Z,4.63
2023-03-03T10:00:36.776Z,5.10
2023-03-03T10:03:48.541Z,5.63
2023-03-03T10:06:38.977Z,5.05
2023-03-03T10:09:46.381Z,4.43
2023-03-03T10:12:38.590Z,3.90
2023-03-03T10:15:35.707Z,4.80
2023-03-03T10:18:33.199Z,2.60
2023-03-03T10:21:25.261Z,3.45
2023-03-03T10:24:27.170Z,3.33
2023-03-03T10:30:14.010Z,3.75
2023-03-03T10:33:07.065Z,3.08
2023-03-03T10:36:11.631Z,3.55
2023-03-03T10:39:13.473Z,3.20
2023-03-03T10:42:15.814Z,3.83
2023-03-03T10:45:45.422Z,5.10
2023-03-03T10:48:54.897Z,3.30
2023-03-03T10:51:50.436Z,3.28
2023-03-03T10:54:52.553Z,2.90
2023-03-03T10:57:43.593Z,2.92
2023-03-03T11:00:35.488Z,3.10
2023-03-03T11:03:54.597Z,2.90
2023-03-03T11:06:46.037Z,2.80
2023-03-03T11:09:52.074Z,3.20
2023-03-03T11:12:47.854Z,3.95
2023-03-03T11:15:47.580Z,3.10
2023-03-03T11:18:45.121Z,3.58
2023-03-03T11:21:40.368Z,4.15
2023-03-03T11:24:46.326Z,3.33
2023-03-03T11:27:52.160Z,3.42
2023-03-03T11:30:51.251Z,2.22
2023-03-03T11:33:46.043Z,2.78
2023-03-03T11:36:37.023Z,3.25
2023-03-03T11:39:27.625Z,3.42
2023-03-03T11:42:23.646Z,3.33
2023-03-03T11:45:15.634Z,3.22
2023-03-03T11:48:08.920Z,3.13
2023-03-03T11:51:00.751Z,2.58
2023-03-03T11:53:58.717Z,3.42
2023-03-03T11:56:47.467Z,3.53
2023-03-03T11:59:44.357Z,3.25
2023-03-03T12:03:02.233Z,3.13
2023-03-03T12:05:57.247Z,2.90
2023-03-03T12:09:03.696Z,2.70
2023-03-03T12:11:54.247Z,3.55
2023-03-03T12:15:03.348Z,3.63
2023-03-03T12:18:06.306Z,3.35
2023-03-03T12:21:03.923Z,2.72
2023-03-03T12:24:07.987Z,2.20
2023-03-03T12:27:03.727Z,2.60
2023-03-03T12:29:58.770Z,2.35
2023-03-03T12:33:00.381Z,2.35
2023-03-03T12:35:54.945Z,2.60
2023-03-03T12:38:49.183Z,2.55
2023-03-03T12:41:42.068Z,3.13
2023-03-03T12:44:33.621Z,2.80
2023-03-03T12:50:27.407Z,3.33
2023-03-03T12:53:27.545Z,3.10
2023-03-03T12:56:17.180Z,2.53
2023-03-03T12:59:14.270Z,2.38
2023-03-03T13:02:20.278Z,2.35
2023-03-03T13:05:18.998Z,2.72
2023-03-03T13:08:33.644Z,2.63
2023-03-03T13:11:34.818Z,2.40
2023-03-03T13:14:32.837Z,1.92
2023-03-03T13:17:24.309Z,2.28
2023-03-03T13:20:21.231Z,1.83
2023-03-03T13:23:12.458Z,2.17
2023-03-03T13:26:03.313Z,2.70
2023-03-03T13:29:03.366Z,2.60
2023-03-03T13:31:55.691Z,2.60
2023-03-03T13:34:49.561Z,2.10
2023-03-03T13:37:41.055Z,2.65
2023-03-03T13:40:35.472Z,1.90
2023-03-03T13:43:30.137Z,1.67
2023-03-03T13:46:24.633Z,2.28
2023-03-03T13:49:32.896Z,1.85
2023-03-03T13:52:22.455Z,1.70
2023-03-03T13:55:21.666Z,1.63
2023-03-03T13:58:18.178Z,1.50
2023-03-03T14:01:10.033Z,1.85
2023-03-03T14:04:10.023Z,1.65
2023-03-03T14:07:07.205Z,2.55
2023-03-03T14:10:02.258Z,1.65
2023-03-03T14:12:56.783Z,1.50
2023-03-03T14:15:52.164Z,1.55
2023-03-03T14:18:41.520Z,1.50
2023-03-03T14:21:35.560Z,1.42
2023-03-03T14:24:26.415Z,2.03
2023-03-03T14:27:24.396Z,1.60
2023-03-03T14:30:29.704Z,1.55
2023-03-03T14:33:24.615Z,2.13
2023-03-03T14:36:18.083Z,1.73
2023-03-03T14:39:32.020Z,1.77
2023-03-03T14:42:33.894Z,1.70
2023-03-03T14:45:30.446Z,1.83
2023-03-03T14:48:18.494Z,1.83
2023-03-03T14:51:23.215Z,1.50
2023-03-03T14:54:16.338Z,1.55
2023-03-03T14:57:12.092Z,1.50
2023-03-03T15:00:00.756Z,2.30
2023-03-03T15:03:02.706Z,1.67
2023-03-03T15:05:52.216Z,3.22
2023-03-03T15:08:40.410Z,3.47
2023-03-03T15:11:32.215Z,2.40
2023-03-03T15:14:24.524Z,1.75
2023-03-03T15:17:28.109Z,1.60
2023-03-03T15:20:35.519Z,1.70
2023-03-03T15:23:37.589Z,1.95
2023-03-03T15:26:29.417Z,3.00
2023-03-03T15:29:25.622Z,2.30
2023-03-03T15:32:18.739Z,1.80
2023-03-03T15:35:15.435Z,1.77
2023-03-03T15:38:06.953Z,1.70
2023-03-03T15:41:00.261Z,2.13
2023-03-03T15:43:57.609Z,2.00
2023-03-03T15:47:09.634Z,2.88
2023-03-03T15:50:22.066Z,1.50
2023-03-03T15:53:27.120Z,5.68
2023-03-03T15:56:26.004Z,2.83
2023-03-03T15:59:37.980Z,1.85
2023-03-03T16:02:35.962Z,2.20
2023-03-03T16:05:25.709Z,1.90
2023-03-03T16:08:16.178Z,1.45
2023-03-03T16:11:08.298Z,1.02
2023-03-03T16:14:03.931Z,1.40
2023-03-03T16:16:57.592Z,1.73
2023-03-03T16:19:53.616Z,3.85
2023-03-03T16:22:58.844Z,3.08
2023-03-03T16:26:07.737Z,0.90
2023-03-03T16:29:09.313Z,1.23
2023-03-03T16:32:01.290Z,1.30
2023-03-03T16:34:56.180Z,1.27
2023-03-03T16:37:53.997Z,1.20
2023-03-03T16:40:45.686Z,0.93
2023-03-03T16:43:45.678Z,1.17
2023-03-03T16:46:34.205Z,0.95
2023-03-03T16:49:27.574Z,1.33
2023-03-03T16:52:17.350Z,1.00
2023-03-03T16:55:09.901Z,0.90
2023-03-03T16:58:07.273Z,1.05
2023-03-03T17:00:59.050Z,1.13
2023-03-03T17:04:00.398Z,1.30
2023-03-03T17:09:47.327Z,1.35
2023-03-03T17:12:49.530Z,1.60
2023-03-03T17:15:43.016Z,1.77
2023-03-03T17:18:39.543Z,2.03
2023-03-03T17:21:38.877Z,1.40
2023-03-03T17:24:35.536Z,1.33
2023-03-03T17:27:31.858Z,1.60
2023-03-03T17:30:22.496Z,1.90
2023-03-03T17:33:20.402Z,1.50
2023-03-03T17:36:22.654Z,1.90
2023-03-03T17:39:18.396Z,1.65
2023-03-03T17:42:12.210Z,1.60
2023-03-03T17:45:06.087Z,1.70
2023-03-03T17:48:16.110Z,1.60
2023-03-03T17:51:29.919Z,1.77
2023-03-03T17:54:39.917Z,1.42
2023-03-03T17:57:40.527Z,1.45
2023-03-03T18:00:40.312Z,1.98
2023-03-03T18:03:56.647Z,1.77
2023-03-03T18:07:00.182Z,1.98
2023-03-03T18:10:01.360Z,2.70
2023-03-03T18:12:55.665Z,2.78
2023-03-03T18:16:11.257Z,2.92
2023-03-03T18:19:22.673Z,6.60
2023-03-03T18:22:14.165Z,4.97
2023-03-03T18:25:04.508Z,4.28
2023-03-03T18:28:20.108Z,2.97
2023-03-03T18:31:21.948Z,3.28
2023-03-03T18:34:10.020Z,2.70
2023-03-03T18:36:57.808Z,2.55
2023-03-03T18:39:45.969Z,2.38
2023-03-03T18:42:37.861Z,2.20
2023-03-03T18:45:50.128Z,1.80
2023-03-03T18:48:50.419Z,1.95
2023-03-03T18:52:12.757Z,2.17
2023-03-03T18:55:26.630Z,2.97
2023-03-03T18:58:34.688Z,2.03
2023-03-03T19:01:41.779Z,2.53
2023-03-03T19:04:37.097Z,2.20
2023-03-03T19:07:27.043Z,2.80
2023-03-03T19:10:46.035Z,2.30
2023-03-03T19:13:49.122Z,3.40
2023-03-03T19:16:38.443Z,2.45
2023-03-03T19:19:25.851Z,3.03
2023-03-03T19:22:22.818Z,2.53
2023-03-03T19:25:23.600Z,3.15
2023-03-03T19:28:36.990Z,2.95
2023-03-03T19:31:31.720Z,2.63
2023-03-03T19:34:22.315Z,2.47
2023-03-03T19:37:22.122Z,2.45
2023-03-03T19:40:18.427Z,2.58
2023-03-03T19:43:11.574Z,2.45
2023-03-03T19:46:11.099Z,2.72
2023-03-03T19:49:04.771Z,2.95
2023-03-03T19:51:56.726Z,2.63
2023-03-03T19:54:53.496Z,2.65
2023-03-03T19:57:51.501Z,2.50
2023-03-03T20:00:42.040Z,2.45
2023-03-03T20:03:49.358Z,2.28
2023-03-03T20:06:53.588Z,2.15
2023-03-03T20:09:49.333Z,3.17
2023-03-03T20:12:53.862Z,2.55
2023-03-03T20:15:47.721Z,2.80
2023-03-03T20:18:53.476Z,2.08
2023-03-03T20:21:44.493Z,2.72
2023-03-03T20:24:48.515Z,2.40
2023-03-03T20:27:43.999Z,2.35
2023-03-03T20:30:47.177Z,3.00
2023-03-03T20:33:48.324Z,2.80
2023-03-03T20:36:43.695Z,2.55
2023-03-03T20:39:41.034Z,2.42
2023-03-03T20:42:40.107Z,3.15
2023-03-03T20:45:39.773Z,4.38
2023-03-03T20:48:45.601Z,2.90
2023-03-03T20:51:39.633Z,3.20
2023-03-03T20:54:33.024Z,3.67
2023-03-03T20:57:33.729Z,2.85
2023-03-03T21:00:25.410Z,2.90
2023-03-03T21:03:17.686Z,2.10
2023-03-03T21:06:07.531Z,2.60
2023-03-03T21:08:54.339Z,3.80
2023-03-03T21:11:42.264Z,2.65
2023-03-03T21:14:30.572Z,2.50
2023-03-03T21:17:28.556Z,2.70
2023-03-03T21:20:26.660Z,2.30
2023-03-03T21:23:12.918Z,2.63
2023-03-03T21:25:59.044Z,2.47
2023-03-03T21:29:02.232Z,2.58
2023-03-03T21:31:50.901Z,3.78
2023-03-03T21:34:38.570Z,4.97
2023-03-03T21:37:44.920Z,4.60
2023-03-03T21:40:30.932Z,3.08
2023-03-03T21:43:32.796Z,3.17
2023-03-03T21:49:04.724Z,2.80
2023-03-03T21:51:50.491Z,2.65
2023-03-03T21:54:38.013Z,2.67
2023-03-03T21:57:25.016Z,2.72
2023-03-03T22:00:12.046Z,2.65
2023-03-03T22:02:57.828Z,2.30
2023-03-03T22:05:43.889Z,2.53
2023-03-03T22:08:29.622Z,2.70
2023-03-03T22:11:16.885Z,2.08
2023-03-03T22:14:03.021Z,2.72
2023-03-03T22:16:48.983Z,2.80
2023-03-03T22:19:36.471Z,2.65
2023-03-03T22:22:22.432Z,4.10
2023-03-03T22:25:10.209Z,2.95
2023-03-03T22:27:57.170Z,2.50
2023-03-03T22:30:42.897Z,2.60
2023-03-03T22:33:28.665Z,2.60
2023-03-03T22:36:15.227Z,3.30
2023-03-03T22:39:01.915Z,2.75
2023-03-03T22:41:47.749Z,2.90
2023-03-03T22:44:34.767Z,2.15
2023-03-03T22:47:20.428Z,2.83
2023-03-03T22:50:06.784Z,2.40
2023-03-03T22:52:53.076Z,2.63
2023-03-03T22:55:38.750Z,3.58
2023-03-03T22:58:26.092Z,3.58
2023-03-03T23:01:13.207Z,5.07
2023-03-03T23:03:58.988Z,4.60
2023-03-03T23:06:45.066Z,4.95
2023-03-03T23:09:30.556Z,4.35
2023-03-03T23:12:16.028Z,2.38
2023-03-03T23:15:01.906Z,3.30
2023-03-03T23:17:49.099Z,2.78
2023-03-03T23:20:35.180Z,2.42
2023-03-03T23:23:21.155Z,3.33
2023-03-03T23:26:07.144Z,1.80
2023-03-03T23:28:52.872Z,2.33
2023-03-03T23:31:38.596Z,2.20
2023-03-03T23:34:32.018Z,2.22
2023-03-03T23:37:18.110Z,2.20
2023-03-03T23:40:04.425Z,3.03
2023-03-03T23:42:50.550Z,2.58
2023-03-03T23:45:36.049Z,3.40
2023-03-03T23:48:21.687Z,2.03
2023-03-03T23:51:08.620Z,2.67
2023-03-03T23:53:54.542Z,2.50
2023-03-03T23:56:40.053Z,2.20
2023-03-03T23:59:26.253Z,2.10
